sensor_id;sensor_type;location;lat;lon;timestamp;P1;durP1;ratioP1;P2;durP2;ratioP2
57313;SDS011;53202;50.976;18.216;2023-02-15T00:08:13;52.20;;;29.10;;
57313;SDS011;53202;50.976;18.216;2023-02-15T00:17:57;48.10;;;25.70;;
57313;SDS011;53202;50.976;18.216;2023-02-15T00:27:40;25.00;;;18.90;;
57313;SDS011;53202;50.976;18.216;2023-02-15T00:37:24;22.70;;;16.00;;
57313;SDS011;53202;50.976;18.216;2023-02-15T00:47:08;31.80;;;19.10;;
57313;SDS011;53202;50.976;18.216;2023-02-15T00:56:52;64.60;;;24.70;;
57313;SDS011;53202;50.976;18.216;2023-02-15T01:06:35;36.20;;;21.80;;
57313;SDS011;53202;50.976;18.216;2023-02-15T01:16:21;41.70;;;22.40;;
57313;SDS011;53202;50.976;18.216;2023-02-15T01:26:07;49.60;;;19.80;;
57313;SDS011;53202;50.976;18.216;2023-02-15T01:35:56;44.30;;;21.30;;
57313;SDS011;53202;50.976;18.216;2023-02-15T01:40:51;50.20;;;34.10;;
57313;SDS011;53202;50.976;18.216;2023-02-15T01:50:44;35.20;;;24.10;;
57313;SDS011;53202;50.976;18.216;2023-02-15T02:00:39;38.30;;;22.90;;
57313;SDS011;53202;50.976;18.216;2023-02-15T02:10:26;35.80;;;22.30;;
57313;SDS011;53202;50.976;18.216;2023-02-15T02:20:51;41.50;;;24.80;;
57313;SDS011;53202;50.976;18.216;2023-02-15T02:31:36;29.10;;;22.90;;
57313;SDS011;53202;50.976;18.216;2023-02-15T02:42:18;29.60;;;19.70;;
57313;SDS011;53202;50.976;18.216;2023-02-15T02:52:37;34.90;;;22.40;;
57313;SDS011;53202;50.976;18.216;2023-02-15T03:02:30;32.50;;;22.60;;
57313;SDS011;53202;50.976;18.216;2023-02-15T03:12:23;32.50;;;22.80;;
57313;SDS011;53202;50.976;18.216;2023-02-15T03:22:35;28.60;;;24.50;;
57313;SDS011;53202;50.976;18.216;2023-02-15T03:32:29;26.20;;;17.50;;
57313;SDS011;53202;50.976;18.216;2023-02-15T03:42:50;29.70;;;16.40;;
57313;SDS011;53202;50.976;18.216;2023-02-15T03:52:59;34.90;;;21.50;;
57313;SDS011;53202;50.976;18.216;2023-02-15T04:03:29;22.70;;;19.40;;
57313;SDS011;53202;50.976;18.216;2023-02-15T04:13:36;22.80;;;19.90;;
57313;SDS011;53202;50.976;18.216;2023-02-15T04:23:51;60.00;;;20.80;;
57313;SDS011;53202;50.976;18.216;2023-02-15T04:33:49;7.70;;;7.00;;
57313;SDS011;53202;50.976;18.216;2023-02-15T04:43:33;16.90;;;14.00;;
57313;SDS011;53202;50.976;18.216;2023-02-15T04:53:17;25.70;;;21.50;;
57313;SDS011;53202;50.976;18.216;2023-02-15T05:03:01;49.80;;;24.80;;
57313;SDS011;53202;50.976;18.216;2023-02-15T05:12:44;15.50;;;11.10;;
57313;SDS011;53202;50.976;18.216;2023-02-15T05:22:28;18.20;;;14.50;;
57313;SDS011;53202;50.976;18.216;2023-02-15T05:32:44;29.40;;;25.50;;
57313;SDS011;53202;50.976;18.216;2023-02-15T05:42:30;29.50;;;22.70;;
57313;SDS011;53202;50.976;18.216;2023-02-15T05:52:14;40.30;;;22.40;;
57313;SDS011;53202;50.976;18.216;2023-02-15T06:02:00;33.40;;;26.00;;
57313;SDS011;53202;50.976;18.216;2023-02-15T06:11:45;56.40;;;28.70;;
57313;SDS011;53202;50.976;18.216;2023-02-15T06:21:29;72.20;;;53.90;;
57313;SDS011;53202;50.976;18.216;2023-02-15T06:31:13;43.10;;;37.20;;
57313;SDS011;53202;50.976;18.216;2023-02-15T06:40:57;50.20;;;23.20;;
57313;SDS011;53202;50.976;18.216;2023-02-15T06:50:40;65.50;;;26.00;;
57313;SDS011;53202;50.976;18.216;2023-02-15T07:00:24;37.40;;;28.90;;
57313;SDS011;53202;50.976;18.216;2023-02-15T07:10:16;83.90;;;32.20;;
57313;SDS011;53202;50.976;18.216;2023-02-15T07:20:02;35.20;;;26.40;;
57313;SDS011;53202;50.976;18.216;2023-02-15T07:29:47;42.20;;;31.50;;
57313;SDS011;53202;50.976;18.216;2023-02-15T07:39:31;50.50;;;32.50;;
57313;SDS011;53202;50.976;18.216;2023-02-15T07:49:16;48.40;;;28.70;;
57313;SDS011;53202;50.976;18.216;2023-02-15T07:59:00;67.30;;;32.90;;
57313;SDS011;53202;50.976;18.216;2023-02-15T08:08:51;44.40;;;31.10;;
57313;SDS011;53202;50.976;18.216;2023-02-15T08:19:05;42.10;;;32.30;;
57313;SDS011;53202;50.976;18.216;2023-02-15T08:28:55;52.40;;;39.80;;
57313;SDS011;53202;50.976;18.216;2023-02-15T08:38:41;89.00;;;56.90;;
57313;SDS011;53202;50.976;18.216;2023-02-15T08:48:31;49.30;;;34.20;;
57313;SDS011;53202;50.976;18.216;2023-02-15T08:58:22;48.20;;;36.50;;
57313;SDS011;53202;50.976;18.216;2023-02-15T09:00:49;81.70;;;47.20;;
57313;SDS011;53202;50.976;18.216;2023-02-15T09:10:33;52.10;;;20.10;;
57313;SDS011;53202;50.976;18.216;2023-02-15T09:20:17;74.80;;;38.70;;
57313;SDS011;53202;50.976;18.216;2023-02-15T09:30:05;92.10;;;43.20;;
57313;SDS011;53202;50.976;18.216;2023-02-15T09:39:49;84.20;;;42.30;;
57313;SDS011;53202;50.976;18.216;2023-02-15T10:11:40;79.90;;;29.10;;
57313;SDS011;53202;50.976;18.216;2023-02-15T10:32:32;78.80;;;38.10;;
57313;SDS011;53202;50.976;18.216;2023-02-15T10:43:16;64.20;;;34.70;;
57313;SDS011;53202;50.976;18.216;2023-02-15T10:53:53;53.10;;;36.20;;
57313;SDS011;53202;50.976;18.216;2023-02-15T11:04:30;77.60;;;39.50;;
57313;SDS011;53202;50.976;18.216;2023-02-15T11:24:39;70.80;;;31.90;;
57313;SDS011;53202;50.976;18.216;2023-02-15T11:45:21;51.90;;;32.10;;
57313;SDS011;53202;50.976;18.216;2023-02-15T11:55:18;53.30;;;27.90;;
57313;SDS011;53202;50.976;18.216;2023-02-15T12:05:19;60.70;;;24.40;;
57313;SDS011;53202;50.976;18.216;2023-02-15T12:15:14;35.30;;;20.70;;
57313;SDS011;53202;50.976;18.216;2023-02-15T12:25:33;35.10;;;24.10;;
57313;SDS011;53202;50.976;18.216;2023-02-15T12:35:33;46.60;;;28.50;;
57313;SDS011;53202;50.976;18.216;2023-02-15T12:45:21;48.30;;;26.30;;
57313;SDS011;53202;50.976;18.216;2023-02-15T12:55:52;32.80;;;21.80;;
57313;SDS011;53202;50.976;18.216;2023-02-15T13:06:00;49.80;;;24.40;;
57313;SDS011;53202;50.976;18.216;2023-02-15T13:15:49;50.80;;;27.00;;
57313;SDS011;53202;50.976;18.216;2023-02-15T13:25:44;53.80;;;31.80;;
57313;SDS011;53202;50.976;18.216;2023-02-15T13:35:50;42.20;;;25.60;;
57313;SDS011;53202;50.976;18.216;2023-02-15T13:57:57;44.30;;;30.00;;
57313;SDS011;53202;50.976;18.216;2023-02-15T14:19:02;40.00;;;25.40;;
57313;SDS011;53202;50.976;18.216;2023-02-15T14:29:16;50.90;;;33.70;;
57313;SDS011;53202;50.976;18.216;2023-02-15T14:39:36;55.40;;;31.30;;
57313;SDS011;53202;50.976;18.216;2023-02-15T14:50:38;33.30;;;25.20;;
57313;SDS011;53202;50.976;18.216;2023-02-15T15:01:06;62.70;;;39.00;;
57313;SDS011;53202;50.976;18.216;2023-02-15T15:10:57;40.30;;;27.30;;
57313;SDS011;53202;50.976;18.216;2023-02-15T15:29:43;78.30;;;46.50;;
57313;SDS011;53202;50.976;18.216;2023-02-15T15:40:18;57.60;;;35.70;;
57313;SDS011;53202;50.976;18.216;2023-02-15T15:50:56;51.80;;;30.10;;
57313;SDS011;53202;50.976;18.216;2023-02-15T16:00:43;73.40;;;40.50;;
57313;SDS011;53202;50.976;18.216;2023-02-15T16:10:55;67.70;;;36.60;;
57313;SDS011;53202;50.976;18.216;2023-02-15T16:20:54;78.70;;;40.00;;
57313;SDS011;53202;50.976;18.216;2023-02-15T16:31:15;96.70;;;43.60;;
57313;SDS011;53202;50.976;18.216;2023-02-15T16:41:25;57.20;;;37.70;;
57313;SDS011;53202;50.976;18.216;2023-02-15T16:51:18;117.20;;;60.70;;
57313;SDS011;53202;50.976;18.216;2023-02-15T17:01:09;93.00;;;58.90;;
57313;SDS011;53202;50.976;18.216;2023-02-15T17:11:05;81.60;;;46.60;;
57313;SDS011;53202;50.976;18.216;2023-02-15T17:21:10;106.80;;;55.30;;
57313;SDS011;53202;50.976;18.216;2023-02-15T17:31:12;92.60;;;40.30;;
57313;SDS011;53202;50.976;18.216;2023-02-15T17:41:25;121.70;;;61.70;;
57313;SDS011;53202;50.976;18.216;2023-02-15T17:51:14;120.30;;;62.90;;
57313;SDS011;53202;50.976;18.216;2023-02-15T18:01:18;157.10;;;85.80;;
57313;SDS011;53202;50.976;18.216;2023-02-15T18:12:21;115.50;;;68.80;;
57313;SDS011;53202;50.976;18.216;2023-02-15T18:22:15;155.80;;;69.10;;
57313;SDS011;53202;50.976;18.216;2023-02-15T18:32:05;136.50;;;64.20;;
57313;SDS011;53202;50.976;18.216;2023-02-15T18:42:00;147.70;;;62.80;;
57313;SDS011;53202;50.976;18.216;2023-02-15T18:51:46;117.70;;;68.80;;
57313;SDS011;53202;50.976;18.216;2023-02-15T19:01:48;120.90;;;71.60;;
57313;SDS011;53202;50.976;18.216;2023-02-15T19:11:38;161.30;;;78.20;;
57313;SDS011;53202;50.976;18.216;2023-02-15T19:21:27;134.10;;;58.60;;
57313;SDS011;53202;50.976;18.216;2023-02-15T19:31:16;134.70;;;70.00;;
57313;SDS011;53202;50.976;18.216;2023-02-15T19:41:07;128.40;;;60.50;;
57313;SDS011;53202;50.976;18.216;2023-02-15T19:50:56;95.70;;;52.40;;
57313;SDS011;53202;50.976;18.216;2023-02-15T20:00:45;141.30;;;68.60;;
57313;SDS011;53202;50.976;18.216;2023-02-15T20:10:33;146.00;;;65.00;;
57313;SDS011;53202;50.976;18.216;2023-02-15T20:20:23;97.40;;;56.30;;
57313;SDS011;53202;50.976;18.216;2023-02-15T20:30:13;121.20;;;62.40;;
57313;SDS011;53202;50.976;18.216;2023-02-15T20:40:04;212.50;;;85.10;;
57313;SDS011;53202;50.976;18.216;2023-02-15T20:50:09;136.30;;;61.20;;
57313;SDS011;53202;50.976;18.216;2023-02-15T20:59:52;110.20;;;57.20;;
57313;SDS011;53202;50.976;18.216;2023-02-15T21:09:41;173.30;;;70.40;;
57313;SDS011;53202;50.976;18.216;2023-02-15T21:19:28;118.50;;;66.60;;
57313;SDS011;53202;50.976;18.216;2023-02-15T21:29:17;124.70;;;63.00;;
57313;SDS011;53202;50.976;18.216;2023-02-15T21:39:04;180.10;;;74.70;;
57313;SDS011;53202;50.976;18.216;2023-02-15T21:49:32;161.10;;;69.70;;
57313;SDS011;53202;50.976;18.216;2023-02-15T21:59:31;118.10;;;61.40;;
57313;SDS011;53202;50.976;18.216;2023-02-15T22:09:17;192.00;;;87.00;;
57313;SDS011;53202;50.976;18.216;2023-02-15T22:19:22;153.40;;;68.80;;
57313;SDS011;53202;50.976;18.216;2023-02-15T22:29:11;136.30;;;66.50;;
57313;SDS011;53202;50.976;18.216;2023-02-15T22:39:01;127.20;;;75.50;;
57313;SDS011;53202;50.976;18.216;2023-02-15T22:48:46;122.90;;;67.80;;
57313;SDS011;53202;50.976;18.216;2023-02-15T22:58:32;125.90;;;65.70;;
57313;SDS011;53202;50.976;18.216;2023-02-15T23:08:19;117.00;;;59.20;;
57313;SDS011;53202;50.976;18.216;2023-02-15T23:18:17;122.90;;;65.10;;
57313;SDS011;53202;50.976;18.216;2023-02-15T23:28:22;127.80;;;62.20;;
57313;SDS011;53202;50.976;18.216;2023-02-15T23:38:15;151.30;;;69.00;;
57313;SDS011;53202;50.976;18.216;2023-02-15T23:48:19;172.90;;;57.90;;
57313;SDS011;53202;50.976;18.216;2023-02-15T23:58:14;126.10;;;60.60;;
